Time;durP1;ratioP1;P1;durP2;ratioP2;P2;SDS_P1;SDS_P2;PMS_P1;PMS_P2;Temp;Humidity;BMP_temperature;BMP_pressure;BME280_temperature;BME280_humidity;BME280_pressure;Samples;Min_cycle;Max_cycle;Signal;HPM_P1;HPM_P2
2023/04/10 00:00:08;;;;;;;33.83;25.40;;;9.60;99.90;;;;;;4879679;29;21073;-78
2023/04/10 00:02:36;;;;;;;27.73;24.67;;;9.60;99.90;;;;;;4879104;29;20424;-78
2023/04/10 00:05:02;;;;;;;30.40;25.00;;;9.60;99.90;;;;;;4876274;29;20459;-78
2023/04/10 00:07:28;;;;;;;30.43;25.17;;;9.60;99.90;;;;;;4874992;29;20421;-79
2023/04/10 00:09:53;;;;;;;28.47;23.53;;;9.60;99.90;;;;;;4875198;29;20918;-77
2023/04/10 00:12:19;;;;;;;31.67;25.90;;;9.60;99.90;;;;;;4885955;29;20254;-78
2023/04/10 00:14:45;;;;;;;33.20;26.70;;;9.60;99.90;;;;;;4881895;29;20196;-78
2023/04/10 00:17:11;;;;;;;34.87;28.00;;;9.60;99.90;;;;;;4877929;29;20842;-78
2023/04/10 00:19:37;;;;;;;37.30;27.03;;;9.60;99.90;;;;;;4879649;29;20196;-79
2023/04/10 00:22:03;;;;;;;37.47;26.77;;;9.50;99.90;;;;;;4879543;29;20433;-79
2023/04/10 00:24:29;;;;;;;32.77;26.30;;;9.50;99.90;;;;;;4879452;29;20191;-79
2023/04/10 00:26:56;;;;;;;38.40;29.97;;;9.50;99.90;;;;;;4877629;29;20432;-78
2023/04/10 00:29:23;;;;;;;34.70;28.80;;;9.40;99.90;;;;;;4880434;29;20475;-79
2023/04/10 00:31:49;;;;;;;36.73;28.00;;;9.40;99.90;;;;;;4879549;29;20428;-79
2023/04/10 00:34:15;;;;;;;35.80;27.40;;;9.40;99.90;;;;;;4878624;29;20524;-79
2023/04/10 00:36:40;;;;;;;33.27;27.07;;;9.40;99.90;;;;;;4880318;29;20809;-79
2023/04/10 00:39:08;;;;;;;34.57;26.10;;;9.40;99.90;;;;;;4878731;29;20541;-78
2023/04/10 00:41:34;;;;;;;32.20;26.57;;;9.40;99.90;;;;;;4876038;29;20476;-78
2023/04/10 00:44:00;;;;;;;37.37;27.60;;;9.40;99.90;;;;;;4879070;29;20453;-78
2023/04/10 00:46:27;;;;;;;37.83;26.60;;;9.30;99.90;;;;;;4880820;29;20724;-78
2023/04/10 00:48:55;;;;;;;41.77;30.03;;;9.30;99.90;;;;;;4879773;29;20828;-78
2023/04/10 00:51:21;;;;;;;41.50;32.10;;;9.30;99.90;;;;;;4879488;29;20428;-78
2023/04/10 00:53:51;;;;;;;42.90;33.57;;;9.10;99.90;;;;;;4880693;29;20421;-79
2023/04/10 00:56:18;;;;;;;37.73;29.13;;;9.20;99.90;;;;;;4878964;29;20432;-79
2023/04/10 00:58:44;;;;;;;44.00;32.77;;;9.10;99.90;;;;;;4879741;29;20506;-79
2023/04/10 01:01:10;;;;;;;38.93;29.00;;;9.10;99.90;;;;;;4878851;29;20465;-78
2023/04/10 01:03:38;;;;;;;36.30;29.70;;;9.10;99.90;;;;;;4880231;29;20455;-78
2023/04/10 01:06:20;;;;;;;40.97;30.67;;;9.10;99.90;;;;;;4878723;29;20456;-78
2023/04/10 01:09:01;;;;;;;40.50;30.10;;;9.10;99.90;;;;;;4879793;29;20456;-78
2023/04/10 01:11:40;;;;;;;39.80;29.03;;;9.10;99.90;;;;;;4879166;29;20780;-78
2023/04/10 01:14:24;;;;;;;36.33;28.23;;;9.10;99.90;;;;;;4876372;29;20436;-78
2023/04/10 01:17:00;;;;;;;37.23;28.63;;;9.10;99.90;;;;;;4878908;29;20449;-78
2023/04/10 01:20:00;;;;;;;41.17;31.23;;;9.00;99.90;;;;;;4879527;29;20460;-78
2023/04/10 01:22:35;;;;;;;40.17;30.30;;;9.00;99.90;;;;;;4878738;29;20445;-78
2023/04/10 01:25:38;;;;;;;45.20;32.37;;;9.00;99.90;;;;;;4869184;29;20491;-78
2023/04/10 01:28:12;;;;;;;43.07;31.00;;;9.00;99.90;;;;;;4877152;29;20435;-79
2023/04/10 01:30:39;;;;;;;42.97;32.77;;;9.00;99.90;;;;;;4879202;29;20431;-79
2023/04/10 01:33:09;;;;;;;46.10;33.03;;;9.00;99.90;;;;;;4878281;29;20504;-79
2023/04/10 01:35:37;;;;;;;45.40;32.43;;;9.00;99.90;;;;;;4879887;29;20492;-79
2023/04/10 01:38:05;;;;;;;47.90;35.57;;;9.00;99.90;;;;;;4878752;29;20947;-78
2023/04/10 01:40:33;;;;;;;42.67;33.90;;;9.00;99.90;;;;;;4879639;29;20416;-78
2023/04/10 01:43:01;;;;;;;41.30;33.60;;;9.00;99.90;;;;;;4879333;29;20404;-77
2023/04/10 01:45:27;;;;;;;47.47;35.63;;;8.90;99.90;;;;;;4879634;29;20423;-78
2023/04/10 01:47:54;;;;;;;47.90;33.87;;;8.90;99.90;;;;;;4879610;29;20956;-79
2023/04/10 01:50:24;;;;;;;49.37;37.10;;;9.00;99.90;;;;;;4877572;29;20546;-78
2023/04/10 01:52:51;;;;;;;48.13;35.43;;;8.90;99.90;;;;;;4879446;29;20736;-79
2023/04/10 01:55:20;;;;;;;42.30;33.40;;;9.00;99.90;;;;;;4878721;29;20424;-78
2023/04/10 01:57:47;;;;;;;50.73;34.93;;;8.90;99.90;;;;;;4879285;29;20459;-79
2023/04/10 02:00:15;;;;;;;45.27;33.27;;;8.90;99.90;;;;;;4878608;29;20985;-78
2023/04/10 02:02:41;;;;;;;45.90;33.93;;;8.90;99.90;;;;;;4878598;29;20484;-78
2023/04/10 02:05:09;;;;;;;44.63;32.80;;;8.90;99.90;;;;;;4878684;29;20410;-78
2023/04/10 02:08:00;;;;;;;42.53;32.20;;;9.00;99.90;;;;;;4879557;29;20429;-78
2023/04/10 02:10:30;;;;;;;46.53;33.50;;;8.90;99.90;;;;;;4878900;29;20505;-78
2023/04/10 02:13:02;;;;;;;42.40;33.00;;;8.90;99.90;;;;;;4879244;29;20409;-78
2023/04/10 02:15:31;;;;;;;41.27;31.40;;;8.90;99.90;;;;;;4878989;29;20424;-78
2023/04/10 02:17:58;;;;;;;41.10;32.10;;;8.90;99.90;;;;;;4879037;29;20487;-78
2023/04/10 02:20:25;;;;;;;43.37;32.67;;;8.90;99.90;;;;;;4878608;29;20428;-78
2023/04/10 02:22:52;;;;;;;49.80;33.03;;;8.90;99.90;;;;;;4878870;29;20759;-78
2023/04/10 02:25:18;;;;;;;43.63;33.80;;;8.80;99.90;;;;;;4878288;29;20440;-78
2023/04/10 02:27:44;;;;;;;45.50;34.77;;;8.80;99.90;;;;;;4879163;29;20813;-78
2023/04/10 02:30:10;;;;;;;45.90;34.17;;;8.70;99.90;;;;;;4878148;29;20451;-78
2023/04/10 02:32:36;;;;;;;53.80;39.20;;;8.70;99.90;;;;;;4877941;29;20510;-78
2023/04/10 02:35:02;;;;;;;53.40;38.47;;;8.70;99.90;;;;;;4878387;29;20822;-78
2023/04/10 02:37:29;;;;;;;49.10;36.57;;;8.60;99.90;;;;;;4878448;29;20488;-78
2023/04/10 02:39:55;;;;;;;46.80;36.20;;;8.60;99.90;;;;;;4878814;29;20400;-78
2023/04/10 02:42:20;;;;;;;47.27;35.73;;;8.60;99.90;;;;;;4878042;29;20492;-78
2023/04/10 02:44:47;;;;;;;49.97;35.37;;;8.60;99.90;;;;;;4878075;29;20223;-78
2023/04/10 02:47:12;;;;;;;54.60;37.30;;;8.60;99.90;;;;;;4878192;29;20274;-78
2023/04/10 02:49:38;;;;;;;53.37;38.60;;;8.60;99.90;;;;;;4877510;29;20491;-78
2023/04/10 02:52:04;;;;;;;49.40;35.07;;;8.50;99.90;;;;;;4876938;29;20639;-77
2023/04/10 02:54:30;;;;;;;48.43;36.40;;;8.50;99.90;;;;;;4878902;29;20179;-78
2023/04/10 02:56:56;;;;;;;48.53;36.37;;;8.60;99.90;;;;;;4877472;29;20412;-78
2023/04/10 02:59:22;;;;;;;52.57;36.87;;;8.50;99.90;;;;;;4877660;29;21103;-78
2023/04/10 03:01:49;;;;;;;59.10;39.87;;;8.50;99.90;;;;;;4878609;29;20444;-78
2023/04/10 03:04:15;;;;;;;51.37;37.07;;;8.50;99.90;;;;;;4879731;29;20428;-78
2023/04/10 03:06:40;;;;;;;46.97;36.47;;;8.50;99.90;;;;;;4883487;29;20432;-78
2023/04/10 03:09:06;;;;;;;50.83;38.37;;;8.50;99.90;;;;;;4884013;29;20464;-77
2023/04/10 03:11:33;;;;;;;50.17;37.33;;;8.50;99.90;;;;;;4883457;29;20271;-79
2023/04/10 03:13:58;;;;;;;52.10;36.10;;;8.50;99.90;;;;;;4883470;29;20684;-79
2023/04/10 03:16:24;;;;;;;47.73;35.70;;;8.40;99.90;;;;;;4883986;29;20521;-79
2023/04/10 03:18:52;;;;;;;47.27;36.30;;;8.40;99.90;;;;;;4884338;29;20267;-79
2023/04/10 03:21:18;;;;;;;60.20;44.10;;;8.50;99.90;;;;;;4884154;29;20529;-78
2023/04/10 03:23:44;;;;;;;70.00;47.50;;;8.30;99.90;;;;;;4883254;29;20435;-79
2023/04/10 03:26:10;;;;;;;61.33;43.43;;;8.30;99.90;;;;;;4883768;29;20419;-78
2023/04/10 03:28:35;;;;;;;59.67;43.10;;;8.40;99.90;;;;;;4884574;29;20183;-79
2023/04/10 03:31:02;;;;;;;72.67;48.60;;;8.30;99.90;;;;;;4884481;29;20468;-79
2023/04/10 03:33:29;;;;;;;75.13;51.77;;;8.30;99.90;;;;;;4883147;29;20443;-79
2023/04/10 03:35:56;;;;;;;81.67;55.53;;;8.30;99.90;;;;;;4884389;29;20408;-78
2023/04/10 03:38:22;;;;;;;72.63;50.17;;;8.20;99.90;;;;;;4883696;29;20454;-78
2023/04/10 03:40:48;;;;;;;69.50;45.00;;;8.20;99.90;;;;;;4884329;29;20418;-78
2023/04/10 03:43:13;;;;;;;61.23;42.00;;;8.20;99.90;;;;;;4883736;29;20403;-78
2023/04/10 03:45:39;;;;;;;87.73;59.27;;;8.30;99.90;;;;;;4884583;29;20187;-78
2023/04/10 03:48:05;;;;;;;88.93;56.97;;;8.30;99.90;;;;;;4884460;29;20628;-77
2023/04/10 03:50:31;;;;;;;71.00;49.70;;;8.30;99.90;;;;;;4884595;29;20168;-78
2023/04/10 03:52:56;;;;;;;77.33;53.37;;;8.30;99.90;;;;;;4884425;29;20196;-78
2023/04/10 03:55:22;;;;;;;76.50;53.33;;;8.30;99.90;;;;;;4883226;29;20183;-78
2023/04/10 03:57:48;;;;;;;80.37;51.47;;;8.30;99.90;;;;;;4884170;29;20211;-78
2023/04/10 04:00:15;;;;;;;81.50;53.50;;;8.40;99.90;;;;;;4883341;29;20176;-77
2023/04/10 04:02:41;;;;;;;80.80;55.27;;;8.40;99.90;;;;;;4882177;29;20486;-79
2023/04/10 04:05:08;;;;;;;98.33;61.27;;;8.40;99.90;;;;;;4883869;29;20404;-78
2023/04/10 04:07:34;;;;;;;85.33;57.20;;;8.40;99.90;;;;;;4884247;29;20455;-79
2023/04/10 04:10:02;;;;;;;77.90;55.87;;;8.40;99.90;;;;;;4884029;29;20408;-79
2023/04/10 04:12:28;;;;;;;82.07;55.50;;;8.40;99.90;;;;;;4883338;29;20410;-79
2023/04/10 04:14:54;;;;;;;78.70;53.93;;;8.40;99.90;;;;;;4882819;29;20439;-79
2023/04/10 04:17:20;;;;;;;82.07;55.30;;;8.40;99.90;;;;;;4879359;29;20223;-78
2023/04/10 04:19:45;;;;;;;84.17;56.00;;;8.40;99.90;;;;;;4881478;29;20195;-79
2023/04/10 04:22:11;;;;;;;83.30;57.37;;;8.30;99.90;;;;;;4873706;29;20405;-79
2023/04/10 04:24:37;;;;;;;91.73;58.77;;;8.30;99.90;;;;;;4876938;29;20222;-78
2023/04/10 04:27:02;;;;;;;75.07;55.37;;;8.30;99.90;;;;;;4881164;29;20283;-78
2023/04/10 04:29:28;;;;;;;75.40;52.07;;;8.20;99.90;;;;;;4880333;29;20262;-78
2023/04/10 04:31:54;;;;;;;75.47;50.63;;;8.20;99.90;;;;;;4881124;29;20172;-78
2023/04/10 04:34:20;;;;;;;78.40;53.83;;;8.10;99.90;;;;;;4879514;29;20183;-78
2023/04/10 04:36:45;;;;;;;73.63;50.03;;;8.10;99.90;;;;;;4880070;29;20183;-78
2023/04/10 04:39:11;;;;;;;70.73;49.80;;;8.10;99.90;;;;;;4880209;29;20191;-78
2023/04/10 04:41:37;;;;;;;74.23;51.50;;;8.10;99.90;;;;;;4879398;29;20198;-78
2023/04/10 04:44:04;;;;;;;74.63;50.50;;;8.00;99.90;;;;;;4880961;29;20179;-78
2023/04/10 04:46:29;;;;;;;72.77;51.90;;;8.00;99.90;;;;;;4880008;29;20651;-78
2023/04/10 04:48:55;;;;;;;75.67;52.90;;;8.00;99.90;;;;;;4879860;29;20425;-78
2023/04/10 04:51:21;;;;;;;78.20;52.77;;;8.00;99.90;;;;;;4879967;29;20176;-78
2023/04/10 04:53:46;;;;;;;78.90;52.80;;;8.00;99.90;;;;;;4879056;29;20240;-80
2023/04/10 04:56:12;;;;;;;76.30;53.70;;;8.00;99.90;;;;;;4879824;29;20639;-80
2023/04/10 04:58:38;;;;;;;74.40;50.83;;;8.00;99.90;;;;;;4879801;29;20667;-80
2023/04/10 05:01:05;;;;;;;83.43;53.67;;;8.00;99.90;;;;;;4879947;29;20435;-81
2023/04/10 05:03:31;;;;;;;72.70;50.47;;;8.00;99.90;;;;;;4878031;29;20424;-79
2023/04/10 05:05:57;;;;;;;72.30;51.43;;;8.00;99.90;;;;;;4880212;29;20440;-81
2023/04/10 05:08:23;;;;;;;70.80;49.10;;;8.00;99.90;;;;;;4878511;29;20436;-81
2023/04/10 05:10:49;;;;;;;66.47;49.40;;;8.00;99.90;;;;;;4879666;29;20428;-81
2023/04/10 05:13:16;;;;;;;71.10;49.00;;;7.90;99.90;;;;;;4879493;29;20188;-81
2023/04/10 05:15:43;;;;;;;64.80;46.40;;;7.90;99.90;;;;;;4880217;29;20817;-80
2023/04/10 05:18:09;;;;;;;63.00;45.33;;;7.90;99.90;;;;;;4879771;29;20476;-82
2023/04/10 05:20:36;;;;;;;65.23;45.50;;;7.90;99.90;;;;;;4879748;29;20427;-80
2023/04/10 05:23:02;;;;;;;60.50;44.57;;;7.90;99.90;;;;;;4880135;29;20830;-80
2023/04/10 05:25:28;;;;;;;58.80;44.50;;;7.90;99.90;;;;;;4877300;29;20795;-80
2023/04/10 05:27:53;;;;;;;70.50;48.20;;;8.00;99.90;;;;;;4877834;29;20435;-81
2023/04/10 05:30:19;;;;;;;70.90;50.50;;;8.00;99.90;;;;;;4879243;29;20175;-82
2023/04/10 05:32:45;;;;;;;74.63;52.10;;;8.00;99.90;;;;;;4878555;29;20198;-81
2023/04/10 05:35:11;;;;;;;75.77;52.43;;;8.00;99.90;;;;;;4879694;29;20604;-77
2023/04/10 05:37:37;;;;;;;78.87;52.40;;;8.10;99.90;;;;;;4878280;29;20175;-81
2023/04/10 05:40:03;;;;;;;74.17;52.03;;;8.10;99.90;;;;;;4879986;29;20491;-81
2023/04/10 05:42:29;;;;;;;77.23;53.60;;;8.10;99.90;;;;;;4879040;29;20175;-80
2023/04/10 05:44:55;;;;;;;78.13;54.30;;;8.10;99.90;;;;;;4879751;29;20416;-81
2023/04/10 05:47:20;;;;;;;79.83;55.77;;;8.00;99.90;;;;;;4878076;29;20437;-81
2023/04/10 05:49:46;;;;;;;80.07;54.90;;;8.10;99.90;;;;;;4879658;29;20200;-81
2023/04/10 05:52:12;;;;;;;76.00;52.63;;;8.10;99.90;;;;;;4878515;29;20188;-77
2023/04/10 05:54:38;;;;;;;73.23;52.70;;;8.30;99.90;;;;;;4879038;29;20180;-80
2023/04/10 05:57:03;;;;;;;74.77;54.40;;;8.10;99.90;;;;;;4879420;29;20647;-81
2023/04/10 05:59:29;;;;;;;80.17;54.93;;;8.20;99.90;;;;;;4876853;29;20220;-81
2023/04/10 06:01:58;;;;;;;69.03;51.67;;;8.20;99.90;;;;;;4878547;29;20171;-80
2023/04/10 06:04:24;;;;;;;79.20;52.60;;;8.30;99.90;;;;;;4877689;29;20772;-80
2023/04/10 06:06:50;;;;;;;75.90;53.23;;;8.20;99.90;;;;;;4879322;29;20413;-81
2023/04/10 06:09:15;;;;;;;79.20;55.40;;;8.30;99.90;;;;;;4893101;29;20215;-78
2023/04/10 06:11:41;;;;;;;76.00;52.93;;;8.30;99.90;;;;;;4878187;29;20428;-81
2023/04/10 06:14:07;;;;;;;74.93;52.07;;;8.30;99.90;;;;;;4879230;29;20683;-77
2023/04/10 06:16:33;;;;;;;72.73;50.80;;;8.30;99.90;;;;;;4878489;29;20605;-79
2023/04/10 06:18:58;;;;;;;74.63;50.47;;;8.40;99.90;;;;;;4879326;29;20222;-78
2023/04/10 06:21:25;;;;;;;72.37;51.23;;;8.40;99.90;;;;;;4877495;29;20355;-78
2023/04/10 06:23:51;;;;;;;34.80;26.67;;;8.40;99.90;;;;;;4879357;29;20508;-79
2023/04/10 06:26:16;;;;;;;27.80;20.80;;;8.50;99.90;;;;;;4877754;29;20477;-75
2023/04/10 06:28:43;;;;;;;38.53;29.47;;;8.60;99.90;;;;;;4877536;29;20519;-78
2023/04/10 06:31:11;;;;;;;56.13;40.67;;;8.90;99.90;;;;;;4879182;29;20258;-78
2023/04/10 06:33:37;;;;;;;42.63;28.90;;;9.00;99.90;;;;;;4875557;29;21291;-78
2023/04/10 06:36:03;;;;;;;35.83;27.13;;;9.20;99.90;;;;;;4876040;29;20433;-79
2023/04/10 06:38:29;;;;;;;23.10;17.77;;;9.40;99.90;;;;;;4875026;29;20312;-79
2023/04/10 06:40:55;;;;;;;23.30;18.37;;;9.50;99.90;;;;;;4877015;29;20423;-79
2023/04/10 06:43:21;;;;;;;21.57;14.77;;;9.80;99.90;;;;;;4878076;29;20796;-79
2023/04/10 06:45:47;;;;;;;19.87;15.03;;;9.90;99.90;;;;;;4877353;29;20289;-79
2023/04/10 06:48:13;;;;;;;10.40;9.40;;;10.20;99.90;;;;;;4877780;29;20533;-79
2023/04/10 06:50:38;;;;;;;9.03;8.10;;;10.30;98.00;;;;;;4877891;29;20187;-79
2023/04/10 06:53:04;;;;;;;8.90;8.00;;;10.50;95.60;;;;;;4878721;29;20487;-80
2023/04/10 06:55:30;;;;;;;8.07;7.37;;;10.60;95.20;;;;;;4877898;29;20497;-79
2023/04/10 06:57:56;;;;;;;8.60;7.80;;;10.70;94.50;;;;;;4878522;29;20214;-78
2023/04/10 07:00:22;;;;;;;8.40;7.60;;;11.00;93.40;;;;;;4877287;29;20215;-88
2023/04/10 07:02:48;;;;;;;8.90;8.00;;;11.10;92.50;;;;;;4877222;29;20217;-79
2023/04/10 07:05:15;;;;;;;8.13;7.43;;;11.30;91.80;;;;;;4877778;29;20463;-79
2023/04/10 07:07:41;;;;;;;8.57;7.77;;;11.40;91.90;;;;;;4877926;29;20405;-78
2023/04/10 07:10:07;;;;;;;8.57;7.67;;;11.50;91.50;;;;;;4878534;29;20407;-80
2023/04/10 07:12:33;;;;;;;8.20;7.33;;;11.60;90.10;;;;;;4877724;29;20403;-78
2023/04/10 07:14:59;;;;;;;7.77;7.07;;;11.70;89.20;;;;;;4878481;29;20880;-79
2023/04/10 07:17:25;;;;;;;8.40;7.60;;;11.90;90.20;;;;;;4876246;29;20472;-88
2023/04/10 07:19:51;;;;;;;8.20;7.50;;;12.30;99.90;;;;;;4878481;29;20635;-88
2023/04/10 07:22:16;;;;;;;8.80;8.07;;;12.60;98.30;;;;;;4877133;29;20428;-84
2023/04/10 07:24:43;;;;;;;7.97;7.30;;;12.90;99.90;;;;;;4876312;29;20523;-88
2023/04/10 07:27:08;;;;;;;8.50;7.80;;;13.10;93.60;;;;;;4878603;29;20185;-89
2023/04/10 07:29:34;;;;;;;7.70;7.00;;;13.50;91.30;;;;;;4877698;29;20430;-90
2023/04/10 07:32:00;;;;;;;7.57;6.87;;;13.70;92.70;;;;;;4878854;29;20224;-87
2023/04/10 07:34:26;;;;;;;8.27;7.47;;;14.00;89.90;;;;;;4886977;29;20468;-89
2023/04/10 07:36:52;;;;;;;8.17;7.33;;;14.20;90.60;;;;;;4890200;29;20188;-89
2023/04/10 07:39:18;;;;;;;7.37;6.67;;;14.30;86.00;;;;;;4887729;29;21041;-85
2023/04/10 07:41:43;;;;;;;7.37;6.77;;;14.40;82.00;;;;;;4878047;29;20179;-90
2023/04/10 07:44:10;;;;;;;7.17;6.50;;;14.50;86.80;;;;;;4878360;29;20213;-89
2023/04/10 07:46:36;;;;;;;7.37;6.77;;;14.70;82.90;;;;;;4873622;29;20188;-90
2023/04/10 07:49:02;;;;;;;7.30;6.70;;;14.60;73.70;;;;;;4862476;29;20437;-89
2023/04/10 07:51:28;;;;;;;6.63;6.13;;;14.40;75.30;;;;;;4861859;29;20456;-89
2023/04/10 07:53:55;;;;;;;7.50;6.77;;;14.40;74.00;;;;;;4874182;29;20429;-90
2023/04/10 07:56:21;;;;;;;7.57;6.90;;;14.40;72.80;;;;;;4880005;29;20924;-86
2023/04/10 07:58:48;;;;;;;6.47;5.77;;;14.30;71.90;;;;;;4890684;29;20524;-85
2023/04/10 08:01:14;;;;;;;7.60;6.80;;;14.30;73.20;;;;;;4879536;29;20982;-90
2023/04/10 08:03:42;;;;;;;6.73;6.17;;;14.20;70.70;;;;;;4875065;29;20436;-91
2023/04/10 08:06:09;;;;;;;6.23;5.73;;;14.10;70.00;;;;;;4881623;29;20411;-91
2023/04/10 08:08:39;;;;;;;6.47;5.97;;;14.00;71.50;;;;;;4881237;29;20415;-90
2023/04/10 08:11:26;;;;;;;6.77;6.07;;;14.10;71.70;;;;;;4881729;29;20435;-94
2023/04/10 08:13:53;;;;;;;6.50;6.00;;;14.30;73.60;;;;;;4881447;29;20414;-81
2023/04/10 08:16:30;;;;;;;6.67;6.17;;;14.40;69.30;;;;;;4881157;29;20417;-79
2023/04/10 08:18:56;;;;;;;6.40;5.90;;;14.40;67.90;;;;;;4880765;29;20517;-80
2023/04/10 08:21:26;;;;;;;53.27;45.23;;;14.50;69.50;;;;;;4881520;29;20493;-78
2023/04/10 08:23:54;;;;;;;9.37;8.43;;;14.50;68.40;;;;;;4884210;29;20430;-79
2023/04/10 08:26:20;;;;;;;5.87;5.37;;;14.50;68.80;;;;;;4883588;29;20507;-78
2023/04/10 08:28:50;;;;;;;6.60;5.57;;;14.50;68.20;;;;;;4877679;29;20428;-79
2023/04/10 08:31:20;;;;;;;6.50;6.00;;;14.50;66.70;;;;;;4882944;29;20800;-79
2023/04/10 08:33:46;;;;;;;6.60;6.00;;;14.60;68.80;;;;;;4863258;29;20432;-82
2023/04/10 08:36:14;;;;;;;6.10;5.60;;;14.50;66.40;;;;;;4878346;29;20429;-86
2023/04/10 08:38:41;;;;;;;5.73;5.30;;;14.60;68.10;;;;;;4880204;29;20518;-85
2023/04/10 08:41:12;;;;;;;7.07;6.17;;;14.70;66.10;;;;;;4881177;29;20448;-82
2023/04/10 08:43:38;;;;;;;147.37;98.07;;;14.80;68.00;;;;;;4864448;29;20731;-82
2023/04/10 08:46:05;;;;;;;5.73;5.27;;;14.80;66.10;;;;;;4842776;29;20923;-82
2023/04/10 08:48:47;;;;;;;5.80;5.37;;;14.80;65.20;;;;;;4868559;29;20773;-81
2023/04/10 08:51:17;;;;;;;5.40;5.00;;;14.90;63.70;;;;;;4861035;29;20398;-82
2023/04/10 08:53:44;;;;;;;5.40;4.90;;;14.80;63.40;;;;;;4860176;29;21068;-81
2023/04/10 08:56:16;;;;;;;5.50;5.10;;;14.80;62.40;;;;;;4844801;29;20430;-82
2023/04/10 08:58:45;;;;;;;5.20;4.80;;;14.90;64.60;;;;;;4861127;29;21000;-82
2023/04/10 09:01:12;;;;;;;5.43;5.03;;;15.00;62.30;;;;;;4844935;29;20518;-83
2023/04/10 09:03:38;;;;;;;5.43;5.03;;;15.10;64.00;;;;;;4873641;29;20513;-82
2023/04/10 09:06:06;;;;;;;5.50;5.10;;;15.20;63.50;;;;;;4878301;29;20414;-83
2023/04/10 09:08:33;;;;;;;5.40;4.93;;;15.30;62.00;;;;;;4877341;29;20954;-83
2023/04/10 09:10:58;;;;;;;4.93;4.63;;;15.50;62.70;;;;;;4880112;29;20419;-80
2023/04/10 09:13:39;;;;;;;5.43;5.03;;;15.70;61.40;;;;;;4879887;29;20807;-79
2023/04/10 09:16:06;;;;;;;122.20;84.77;;;15.80;59.20;;;;;;4880540;29;20187;-80
2023/04/10 09:18:46;;;;;;;5.00;4.50;;;15.90;58.90;;;;;;4877808;29;20521;-80
2023/04/10 09:21:16;;;;;;;5.47;4.97;;;16.00;58.00;;;;;;4879565;29;20518;-82
2023/04/10 09:23:46;;;;;;;4.80;4.50;;;15.90;57.40;;;;;;4877689;29;20808;-82
2023/04/10 09:26:23;;;;;;;5.20;4.80;;;15.90;57.30;;;;;;4879603;29;20395;-82
2023/04/10 09:29:17;;;;;;;4.37;4.00;;;15.80;57.10;;;;;;4878808;29;20509;-81
2023/04/10 09:31:44;;;;;;;4.80;4.40;;;15.80;58.10;;;;;;4876047;29;20863;-82
2023/04/10 09:34:09;;;;;;;5.50;5.10;;;15.90;58.30;;;;;;4879069;29;20461;-82
2023/04/10 09:36:36;;;;;;;4.43;4.13;;;16.00;57.70;;;;;;4877069;29;20426;-82
2023/04/10 09:39:03;;;;;;;4.93;4.53;;;16.00;57.90;;;;;;4879560;29;20721;-82
2023/04/10 09:41:29;;;;;;;4.50;4.20;;;16.00;58.10;;;;;;4879224;29;20419;-82
2023/04/10 09:44:08;;;;;;;5.10;4.70;;;15.90;56.60;;;;;;4879332;29;20431;-82
2023/04/10 09:46:35;;;;;;;4.87;4.57;;;15.90;57.10;;;;;;4878108;29;20447;-83
2023/04/10 09:49:04;;;;;;;4.60;4.30;;;16.00;57.50;;;;;;4879160;29;20428;-81
2023/04/10 09:51:32;;;;;;;4.63;4.23;;;16.20;57.50;;;;;;4878409;29;20403;-84
2023/04/10 09:54:00;;;;;;;4.77;4.37;;;16.20;57.20;;;;;;4877640;29;20408;-81
2023/04/10 09:56:27;;;;;;;4.97;4.67;;;16.40;57.30;;;;;;4878995;29;20428;-81
2023/04/10 09:58:57;;;;;;;5.60;5.20;;;16.40;57.50;;;;;;4876234;29;20548;-79
2023/04/10 10:01:28;;;;;;;5.03;4.73;;;16.70;58.10;;;;;;4877696;29;20558;-82
2023/04/10 10:03:57;;;;;;;19.00;13.03;;;16.70;56.10;;;;;;4892753;29;20462;-80
2023/04/10 10:06:22;;;;;;;43.20;28.53;;;16.70;57.20;;;;;;4878072;29;20468;-82
2023/04/10 10:08:49;;;;;;;4.70;4.40;;;16.80;57.00;;;;;;4878345;29;20409;-81
2023/04/10 10:11:20;;;;;;;133.93;67.53;;;16.90;56.20;;;;;;4879035;29;20207;-82
2023/04/10 10:13:55;;;;;;;12.98;11.68;;;17.00;56.50;;;;;;4878359;29;20497;-82
2023/04/10 10:16:38;;;;;;;4.10;3.80;;;17.00;56.20;;;;;;4876165;29;20194;-81
2023/04/10 10:19:28;;;;;;;4.67;4.37;;;17.10;54.90;;;;;;4875744;29;20504;-82
2023/04/10 10:21:55;;;;;;;4.20;3.90;;;17.10;55.00;;;;;;4874132;29;20417;-84
2023/04/10 10:24:25;;;;;;;3.70;3.40;;;17.20;54.80;;;;;;4860080;29;20918;-83
2023/04/10 10:26:53;;;;;;;6.10;5.60;;;17.30;53.90;;;;;;4845094;29;20421;-84
2023/04/10 10:29:24;;;;;;;3.83;3.50;;;17.40;53.50;;;;;;4896483;29;20434;-84
2023/04/10 10:31:51;;;;;;;4.27;3.87;;;17.30;53.10;;;;;;4869691;29;20484;-84
2023/04/10 10:34:17;;;;;;;4.23;3.90;;;17.30;52.50;;;;;;4889754;29;20462;-84
2023/04/10 10:36:43;;;;;;;4.33;4.03;;;17.20;52.90;;;;;;4876405;29;20416;-84
2023/04/10 10:39:44;;;;;;;4.47;4.17;;;17.20;53.00;;;;;;4877685;29;20552;-85
2023/04/10 10:42:33;;;;;;;4.00;3.70;;;17.10;52.50;;;;;;4878665;29;20175;-85
2023/04/10 10:45:16;;;;;;;4.20;4.00;;;17.10;52.70;;;;;;4877032;29;20448;-85
2023/04/10 10:47:53;;;;;;;5.80;5.37;;;16.90;52.20;;;;;;4876893;29;20761;-86
2023/04/10 10:50:21;;;;;;;4.63;4.27;;;16.90;52.80;;;;;;4864870;29;20424;-82
2023/04/10 10:52:52;;;;;;;3.87;3.40;;;16.90;53.50;;;;;;4876106;29;20455;-83
2023/04/10 10:55:21;;;;;;;4.17;3.90;;;16.80;53.60;;;;;;4872103;29;20531;-83
2023/04/10 10:58:00;;;;;;;4.33;4.03;;;16.70;52.30;;;;;;4870239;29;20447;-83
2023/04/10 11:00:46;;;;;;;7.60;6.27;;;16.60;53.70;;;;;;4855386;29;20421;-83
2023/04/10 11:03:15;;;;;;;4.43;4.13;;;16.70;53.80;;;;;;4873747;29;20436;-83
2023/04/10 11:06:01;;;;;;;4.80;4.50;;;16.90;53.20;;;;;;4873085;29;20511;-83
2023/04/10 11:08:35;;;;;;;5.17;4.77;;;17.10;53.70;;;;;;4879097;29;20420;-83
2023/04/10 11:11:04;;;;;;;5.03;4.73;;;17.20;52.40;;;;;;4872402;29;20415;-83
2023/04/10 11:13:31;;;;;;;4.83;4.53;;;17.10;52.50;;;;;;4902793;29;20439;-83
2023/04/10 11:15:58;;;;;;;4.60;4.30;;;17.20;53.20;;;;;;4876782;29;20515;-83
2023/04/10 11:18:46;;;;;;;5.00;4.63;;;17.30;53.00;;;;;;4877726;29;20476;-83
2023/04/10 11:21:17;;;;;;;5.03;4.73;;;17.50;54.60;;;;;;4875896;29;20420;-83
2023/04/10 11:23:49;;;;;;;4.53;4.23;;;17.70;54.10;;;;;;4875038;29;20438;-84
2023/04/10 11:29:02;;;;;;;4.70;4.40;;;18.10;54.00;;;;;;4892647;29;20522;-84
2023/04/10 11:31:29;;;;;;;4.60;4.20;;;18.10;52.70;;;;;;4879329;29;20992;-86
2023/04/10 11:34:02;;;;;;;4.50;4.20;;;17.90;51.60;;;;;;4882385;29;20432;-84
2023/04/10 11:36:28;;;;;;;4.60;4.30;;;17.90;52.20;;;;;;4864658;29;20440;-83
2023/04/10 11:39:04;;;;;;;4.17;3.87;;;18.00;52.40;;;;;;4879272;29;20600;-83
2023/04/10 11:41:40;;;;;;;4.40;4.10;;;18.20;51.50;;;;;;4876951;29;20444;-86
2023/04/10 11:44:28;;;;;;;5.03;4.63;;;18.20;51.80;;;;;;4850576;29;20612;-83
2023/04/10 11:46:54;;;;;;;4.83;4.43;;;18.10;50.50;;;;;;4878971;29;20519;-83
2023/04/10 11:49:22;;;;;;;4.17;3.87;;;18.00;50.70;;;;;;4880015;29;20423;-83
2023/04/10 11:51:49;;;;;;;4.10;3.80;;;18.10;52.00;;;;;;4880679;29;20668;-83
2023/04/10 11:54:20;;;;;;;4.70;4.40;;;18.20;51.40;;;;;;4881604;29;20416;-82
2023/04/10 11:57:01;;;;;;;5.20;4.90;;;18.20;50.40;;;;;;4879743;29;20414;-82
2023/04/10 11:59:28;;;;;;;5.20;4.90;;;18.10;49.50;;;;;;4888640;29;20440;-82
2023/04/10 12:02:08;;;;;;;6.00;5.50;;;18.00;48.90;;;;;;4883687;29;20427;-82
2023/04/10 12:04:34;;;;;;;5.50;5.20;;;18.00;50.20;;;;;;4887855;29;20407;-84
2023/04/10 12:07:00;;;;;;;5.23;4.93;;;17.80;49.60;;;;;;4888588;29;20432;-82
2023/04/10 12:09:26;;;;;;;5.30;5.00;;;17.80;49.80;;;;;;4889108;29;20910;-80
2023/04/10 12:11:55;;;;;;;5.10;4.80;;;17.90;50.30;;;;;;4889176;29;20919;-82
2023/04/10 12:14:22;;;;;;;4.93;4.63;;;18.00;50.20;;;;;;4900929;29;20432;-82
2023/04/10 12:16:50;;;;;;;5.00;4.70;;;18.10;50.40;;;;;;4879215;29;20787;-82
2023/04/10 12:19:16;;;;;;;5.10;4.80;;;18.10;49.40;;;;;;4881008;29;20448;-82
2023/04/10 12:21:44;;;;;;;4.83;4.63;;;18.10;49.50;;;;;;4880627;29;20773;-82
2023/04/10 12:24:11;;;;;;;4.23;4.03;;;18.20;49.30;;;;;;4879851;29;20431;-82
2023/04/10 12:26:37;;;;;;;4.47;4.17;;;18.30;49.60;;;;;;4878803;29;20421;-83
2023/04/10 12:29:05;;;;;;;5.63;5.17;;;18.40;49.30;;;;;;4886126;29;20822;-80
2023/04/10 12:31:35;;;;;;;3.90;3.70;;;18.50;49.30;;;;;;4880790;29;20416;-80
2023/04/10 12:34:02;;;;;;;4.10;3.90;;;18.40;48.10;;;;;;4884320;29;20416;-79
2023/04/10 12:36:29;;;;;;;4.10;3.80;;;18.40;47.70;;;;;;4882735;29;20511;-80
2023/04/10 12:38:56;;;;;;;4.07;3.77;;;18.20;48.60;;;;;;4887293;29;20464;-80
2023/04/10 12:41:31;;;;;;;4.20;4.00;;;18.30;48.10;;;;;;4886983;29;20496;-80
2023/04/10 12:44:13;;;;;;;4.70;4.40;;;18.30;48.50;;;;;;4884608;29;20426;-80
2023/04/10 12:46:40;;;;;;;4.53;4.20;;;18.40;48.80;;;;;;4883431;29;20436;-79
2023/04/10 12:49:14;;;;;;;4.10;3.90;;;18.30;47.90;;;;;;4882178;29;20451;-80